sensor_id;sensor_type;location;lat;lon;timestamp;temperature;humidity
19536;HTU21D;9913;51.168;4.124;2023-03-08T00:01:10;1.92;66.07
19536;HTU21D;9913;51.168;4.124;2023-03-08T00:03:39;1.81;65.82
19536;HTU21D;9913;51.168;4.124;2023-03-08T00:06:10;1.76;66.42
19536;HTU21D;9913;51.168;4.124;2023-03-08T00:08:39;1.85;66.63
19536;HTU21D;9913;51.168;4.124;2023-03-08T00:11:09;1.76;66.20
19536;HTU21D;9913;51.168;4.124;2023-03-08T00:13:38;1.69;66.59
19536;HTU21D;9913;51.168;4.124;2023-03-08T00:16:10;1.93;66.97
19536;HTU21D;9913;51.168;4.124;2023-03-08T00:18:39;2.02;67.19
19536;HTU21D;9913;51.168;4.124;2023-03-08T00:21:10;1.98;66.83
19536;HTU21D;9913;51.168;4.124;2023-03-08T00:23:39;2.05;66.73
19536;HTU21D;9913;51.168;4.124;2023-03-08T00:26:07;2.09;66.44
19536;HTU21D;9913;51.168;4.124;2023-03-08T00:28:36;2.08;66.07
19536;HTU21D;9913;51.168;4.124;2023-03-08T00:31:07;2.08;65.88
19536;HTU21D;9913;51.168;4.124;2023-03-08T00:33:37;2.11;65.74
19536;HTU21D;9913;51.168;4.124;2023-03-08T00:36:07;2.10;65.49
19536;HTU21D;9913;51.168;4.124;2023-03-08T00:38:36;2.16;65.54
19536;HTU21D;9913;51.168;4.124;2023-03-08T00:41:05;2.26;65.60
19536;HTU21D;9913;51.168;4.124;2023-03-08T00:43:34;2.24;65.53
19536;HTU21D;9913;51.168;4.124;2023-03-08T00:46:02;2.31;65.38
19536;HTU21D;9913;51.168;4.124;2023-03-08T00:48:32;2.29;65.48
19536;HTU21D;9913;51.168;4.124;2023-03-08T00:51:01;2.19;65.33
19536;HTU21D;9913;51.168;4.124;2023-03-08T00:53:30;2.13;64.86
19536;HTU21D;9913;51.168;4.124;2023-03-08T00:55:59;1.98;64.24
19536;HTU21D;9913;51.168;4.124;2023-03-08T00:58:30;1.78;64.50
19536;HTU21D;9913;51.168;4.124;2023-03-08T01:00:58;1.94;64.54
19536;HTU21D;9913;51.168;4.124;2023-03-08T01:03:28;1.80;64.39
19536;HTU21D;9913;51.168;4.124;2023-03-08T01:05:58;1.82;65.11
19536;HTU21D;9913;51.168;4.124;2023-03-08T01:08:32;1.87;65.42
19536;HTU21D;9913;51.168;4.124;2023-03-08T01:11:01;1.86;65.12
19536;HTU21D;9913;51.168;4.124;2023-03-08T01:13:32;1.80;65.23
19536;HTU21D;9913;51.168;4.124;2023-03-08T01:16:01;1.86;65.21
19536;HTU21D;9913;51.168;4.124;2023-03-08T01:18:31;1.98;65.02
19536;HTU21D;9913;51.168;4.124;2023-03-08T01:21:02;2.00;64.98
19536;HTU21D;9913;51.168;4.124;2023-03-08T01:23:31;1.97;65.17
19536;HTU21D;9913;51.168;4.124;2023-03-08T01:26:01;1.97;64.62
19536;HTU21D;9913;51.168;4.124;2023-03-08T01:28:30;1.93;64.63
19536;HTU21D;9913;51.168;4.124;2023-03-08T01:31:03;1.97;64.89
19536;HTU21D;9913;51.168;4.124;2023-03-08T01:33:33;2.05;64.30
19536;HTU21D;9913;51.168;4.124;2023-03-08T01:36:04;1.97;64.46
19536;HTU21D;9913;51.168;4.124;2023-03-08T01:38:32;2.08;64.60
19536;HTU21D;9913;51.168;4.124;2023-03-08T01:41:02;2.13;65.15
19536;HTU21D;9913;51.168;4.124;2023-03-08T01:43:32;2.13;65.62
19536;HTU21D;9913;51.168;4.124;2023-03-08T01:46:06;2.19;65.69
19536;HTU21D;9913;51.168;4.124;2023-03-08T01:48:37;2.22;65.62
19536;HTU21D;9913;51.168;4.124;2023-03-08T01:51:15;2.17;65.47
19536;HTU21D;9913;51.168;4.124;2023-03-08T01:53:46;2.24;65.44
19536;HTU21D;9913;51.168;4.124;2023-03-08T01:56:16;2.24;65.31
19536;HTU21D;9913;51.168;4.124;2023-03-08T01:58:47;2.21;64.84
19536;HTU21D;9913;51.168;4.124;2023-03-08T02:01:18;2.17;64.76
19536;HTU21D;9913;51.168;4.124;2023-03-08T02:03:49;2.16;64.95
19536;HTU21D;9913;51.168;4.124;2023-03-08T02:06:20;2.13;64.88
19536;HTU21D;9913;51.168;4.124;2023-03-08T02:08:49;2.20;64.90
19536;HTU21D;9913;51.168;4.124;2023-03-08T02:11:19;2.11;64.64
19536;HTU21D;9913;51.168;4.124;2023-03-08T02:13:50;2.13;64.87
19536;HTU21D;9913;51.168;4.124;2023-03-08T02:16:21;2.06;64.63
19536;HTU21D;9913;51.168;4.124;2023-03-08T02:18:51;1.98;63.73
19536;HTU21D;9913;51.168;4.124;2023-03-08T02:21:23;1.98;63.32
19536;HTU21D;9913;51.168;4.124;2023-03-08T02:23:53;1.83;63.24
19536;HTU21D;9913;51.168;4.124;2023-03-08T02:26:21;1.87;63.97
19536;HTU21D;9913;51.168;4.124;2023-03-08T02:28:50;1.93;63.94
19536;HTU21D;9913;51.168;4.124;2023-03-08T02:31:20;1.90;63.53
19536;HTU21D;9913;51.168;4.124;2023-03-08T02:33:48;1.76;63.40
19536;HTU21D;9913;51.168;4.124;2023-03-08T02:36:16;1.99;63.76
19536;HTU21D;9913;51.168;4.124;2023-03-08T02:38:45;2.08;64.22
19536;HTU21D;9913;51.168;4.124;2023-03-08T02:41:14;2.13;64.61
19536;HTU21D;9913;51.168;4.124;2023-03-08T02:43:43;2.27;64.59
19536;HTU21D;9913;51.168;4.124;2023-03-08T02:46:12;2.24;63.97
19536;HTU21D;9913;51.168;4.124;2023-03-08T02:48:40;2.24;63.44
19536;HTU21D;9913;51.168;4.124;2023-03-08T02:51:08;2.23;63.28
19536;HTU21D;9913;51.168;4.124;2023-03-08T02:53:37;2.16;63.24
19536;HTU21D;9913;51.168;4.124;2023-03-08T02:56:05;2.20;63.88
19536;HTU21D;9913;51.168;4.124;2023-03-08T02:58:35;2.19;63.92
19536;HTU21D;9913;51.168;4.124;2023-03-08T03:01:09;2.17;64.24
19536;HTU21D;9913;51.168;4.124;2023-03-08T03:03:38;2.21;64.26
19536;HTU21D;9913;51.168;4.124;2023-03-08T03:06:12;2.23;64.37
19536;HTU21D;9913;51.168;4.124;2023-03-08T03:08:43;2.22;64.57
19536;HTU21D;9913;51.168;4.124;2023-03-08T03:11:12;2.23;65.01
19536;HTU21D;9913;51.168;4.124;2023-03-08T03:13:42;2.25;65.24
19536;HTU21D;9913;51.168;4.124;2023-03-08T03:16:14;2.19;65.35
19536;HTU21D;9913;51.168;4.124;2023-03-08T03:18:43;2.07;64.85
19536;HTU21D;9913;51.168;4.124;2023-03-08T03:21:12;2.02;64.85
19536;HTU21D;9913;51.168;4.124;2023-03-08T03:23:41;2.07;65.17
19536;HTU21D;9913;51.168;4.124;2023-03-08T03:26:15;1.97;65.16
19536;HTU21D;9913;51.168;4.124;2023-03-08T03:28:48;1.99;66.20
19536;HTU21D;9913;51.168;4.124;2023-03-08T03:31:20;2.02;66.42
19536;HTU21D;9913;51.168;4.124;2023-03-08T03:33:49;2.03;66.90
19536;HTU21D;9913;51.168;4.124;2023-03-08T03:36:21;2.11;66.98
19536;HTU21D;9913;51.168;4.124;2023-03-08T03:38:51;2.08;66.85
19536;HTU21D;9913;51.168;4.124;2023-03-08T03:41:22;2.10;66.62
19536;HTU21D;9913;51.168;4.124;2023-03-08T03:44:02;2.06;66.35
19536;HTU21D;9913;51.168;4.124;2023-03-08T03:46:32;1.95;65.78
19536;HTU21D;9913;51.168;4.124;2023-03-08T03:49:02;1.87;65.50
19536;HTU21D;9913;51.168;4.124;2023-03-08T03:51:34;1.83;65.44
19536;HTU21D;9913;51.168;4.124;2023-03-08T03:54:14;1.76;64.88
19536;HTU21D;9913;51.168;4.124;2023-03-08T03:56:44;1.72;64.79
19536;HTU21D;9913;51.168;4.124;2023-03-08T03:59:14;1.72;65.28
19536;HTU21D;9913;51.168;4.124;2023-03-08T04:01:42;1.62;65.37
19536;HTU21D;9913;51.168;4.124;2023-03-08T04:04:18;1.51;65.16
19536;HTU21D;9913;51.168;4.124;2023-03-08T04:06:47;1.42;65.04
19536;HTU21D;9913;51.168;4.124;2023-03-08T04:09:19;1.27;65.35
19536;HTU21D;9913;51.168;4.124;2023-03-08T04:12:04;1.33;66.17
19536;HTU21D;9913;51.168;4.124;2023-03-08T04:14:36;1.26;66.07
19536;HTU21D;9913;51.168;4.124;2023-03-08T04:17:07;1.37;66.91
19536;HTU21D;9913;51.168;4.124;2023-03-08T04:19:42;1.33;67.17
19536;HTU21D;9913;51.168;4.124;2023-03-08T04:22:12;1.29;67.20
19536;HTU21D;9913;51.168;4.124;2023-03-08T04:24:46;1.26;67.40
19536;HTU21D;9913;51.168;4.124;2023-03-08T04:27:20;1.16;67.74
19536;HTU21D;9913;51.168;4.124;2023-03-08T04:29:50;1.16;68.03
19536;HTU21D;9913;51.168;4.124;2023-03-08T04:32:20;1.13;68.34
19536;HTU21D;9913;51.168;4.124;2023-03-08T04:34:53;1.09;68.44
19536;HTU21D;9913;51.168;4.124;2023-03-08T04:37:25;1.04;68.53
19536;HTU21D;9913;51.168;4.124;2023-03-08T04:40:00;1.04;68.81
19536;HTU21D;9913;51.168;4.124;2023-03-08T04:42:32;1.04;68.98
19536;HTU21D;9913;51.168;4.124;2023-03-08T04:45:03;0.92;69.04
19536;HTU21D;9913;51.168;4.124;2023-03-08T04:47:32;0.96;69.37
19536;HTU21D;9913;51.168;4.124;2023-03-08T04:50:00;0.88;69.30
19536;HTU21D;9913;51.168;4.124;2023-03-08T04:52:30;0.80;68.81
19536;HTU21D;9913;51.168;4.124;2023-03-08T04:54:58;0.68;68.36
19536;HTU21D;9913;51.168;4.124;2023-03-08T04:57:27;0.76;68.79
19536;HTU21D;9913;51.168;4.124;2023-03-08T04:59:58;0.63;68.71
19536;HTU21D;9913;51.168;4.124;2023-03-08T05:02:27;0.63;69.49
19536;HTU21D;9913;51.168;4.124;2023-03-08T05:04:58;0.73;69.78
19536;HTU21D;9913;51.168;4.124;2023-03-08T05:07:27;0.78;70.33
19536;HTU21D;9913;51.168;4.124;2023-03-08T05:09:57;0.77;70.55
19536;HTU21D;9913;51.168;4.124;2023-03-08T05:12:25;0.78;70.62
19536;HTU21D;9913;51.168;4.124;2023-03-08T05:14:56;0.73;70.66
19536;HTU21D;9913;51.168;4.124;2023-03-08T05:17:27;0.74;70.82
19536;HTU21D;9913;51.168;4.124;2023-03-08T05:19:56;0.69;70.87
19536;HTU21D;9913;51.168;4.124;2023-03-08T05:22:31;0.63;71.21
19536;HTU21D;9913;51.168;4.124;2023-03-08T05:25:18;0.65;71.60
19536;HTU21D;9913;51.168;4.124;2023-03-08T05:27:46;0.61;71.90
19536;HTU21D;9913;51.168;4.124;2023-03-08T05:30:15;0.62;72.18
19536;HTU21D;9913;51.168;4.124;2023-03-08T05:32:45;0.65;72.35
19536;HTU21D;9913;51.168;4.124;2023-03-08T05:35:14;0.64;72.36
19536;HTU21D;9913;51.168;4.124;2023-03-08T05:37:42;0.63;72.32
19536;HTU21D;9913;51.168;4.124;2023-03-08T05:40:11;0.46;71.68
19536;HTU21D;9913;51.168;4.124;2023-03-08T05:42:42;0.39;70.72
19536;HTU21D;9913;51.168;4.124;2023-03-08T05:45:12;0.46;70.35
19536;HTU21D;9913;51.168;4.124;2023-03-08T05:47:41;0.42;70.32
19536;HTU21D;9913;51.168;4.124;2023-03-08T05:50:11;0.53;70.32
19536;HTU21D;9913;51.168;4.124;2023-03-08T05:52:42;0.43;70.23
19536;HTU21D;9913;51.168;4.124;2023-03-08T05:55:15;0.59;70.48
19536;HTU21D;9913;51.168;4.124;2023-03-08T05:57:45;0.57;70.79
19536;HTU21D;9913;51.168;4.124;2023-03-08T06:00:14;0.60;71.01
19536;HTU21D;9913;51.168;4.124;2023-03-08T06:02:45;0.57;71.38
19536;HTU21D;9913;51.168;4.124;2023-03-08T06:05:15;0.55;71.51
19536;HTU21D;9913;51.168;4.124;2023-03-08T06:07:45;0.52;71.38
19536;HTU21D;9913;51.168;4.124;2023-03-08T06:10:14;0.54;71.51
19536;HTU21D;9913;51.168;4.124;2023-03-08T06:12:43;0.55;71.53
19536;HTU21D;9913;51.168;4.124;2023-03-08T06:15:15;0.53;71.44
19536;HTU21D;9913;51.168;4.124;2023-03-08T06:17:51;0.53;71.29
19536;HTU21D;9913;51.168;4.124;2023-03-08T06:20:24;0.60;71.29
19536;HTU21D;9913;51.168;4.124;2023-03-08T06:22:52;0.54;71.42
19536;HTU21D;9913;51.168;4.124;2023-03-08T06:25:20;0.54;71.43
19536;HTU21D;9913;51.168;4.124;2023-03-08T06:27:49;0.39;71.15
19536;HTU21D;9913;51.168;4.124;2023-03-08T06:30:26;0.31;70.66
19536;HTU21D;9913;51.168;4.124;2023-03-08T06:32:55;0.29;70.52
19536;HTU21D;9913;51.168;4.124;2023-03-08T06:35:25;0.48;71.19
19536;HTU21D;9913;51.168;4.124;2023-03-08T06:37:58;0.49;71.58
19536;HTU21D;9913;51.168;4.124;2023-03-08T06:40:26;0.48;71.80
19536;HTU21D;9913;51.168;4.124;2023-03-08T06:42:54;0.49;72.00
19536;HTU21D;9913;51.168;4.124;2023-03-08T06:45:23;0.48;72.10
19536;HTU21D;9913;51.168;4.124;2023-03-08T06:47:51;0.50;72.01
19536;HTU21D;9913;51.168;4.124;2023-03-08T06:50:20;0.49;71.84
19536;HTU21D;9913;51.168;4.124;2023-03-08T06:52:50;0.47;71.61
19536;HTU21D;9913;51.168;4.124;2023-03-08T06:55:27;0.42;71.26
19536;HTU21D;9913;51.168;4.124;2023-03-08T06:57:56;0.39;71.13
19536;HTU21D;9913;51.168;4.124;2023-03-08T07:00:24;0.35;71.13
19536;HTU21D;9913;51.168;4.124;2023-03-08T07:02:53;0.32;71.33
19536;HTU21D;9913;51.168;4.124;2023-03-08T07:05:22;0.33;71.89
19536;HTU21D;9913;51.168;4.124;2023-03-08T07:07:51;0.17;72.09
19536;HTU21D;9913;51.168;4.124;2023-03-08T07:10:20;0.14;72.35
19536;HTU21D;9913;51.168;4.124;2023-03-08T07:12:49;0.24;72.93
19536;HTU21D;9913;51.168;4.124;2023-03-08T07:15:19;0.31;73.48
19536;HTU21D;9913;51.168;4.124;2023-03-08T07:17:50;0.30;73.64
19536;HTU21D;9913;51.168;4.124;2023-03-08T07:20:22;0.44;73.81
19536;HTU21D;9913;51.168;4.124;2023-03-08T07:22:52;0.39;73.44
19536;HTU21D;9913;51.168;4.124;2023-03-08T07:25:21;0.42;72.88
19536;HTU21D;9913;51.168;4.124;2023-03-08T07:27:49;0.45;72.41
19536;HTU21D;9913;51.168;4.124;2023-03-08T07:30:17;0.47;72.06
19536;HTU21D;9913;51.168;4.124;2023-03-08T07:32:46;0.47;71.83
19536;HTU21D;9913;51.168;4.124;2023-03-08T07:35:14;0.48;71.66
19536;HTU21D;9913;51.168;4.124;2023-03-08T07:37:44;0.54;71.17
19536;HTU21D;9913;51.168;4.124;2023-03-08T07:40:16;0.59;70.90
19536;HTU21D;9913;51.168;4.124;2023-03-08T07:42:45;0.51;70.67
19536;HTU21D;9913;51.168;4.124;2023-03-08T07:45:37;0.39;69.73
19536;HTU21D;9913;51.168;4.124;2023-03-08T07:48:06;0.47;68.97
19536;HTU21D;9913;51.168;4.124;2023-03-08T07:50:35;0.63;69.03
19536;HTU21D;9913;51.168;4.124;2023-03-08T07:53:03;0.59;68.52
19536;HTU21D;9913;51.168;4.124;2023-03-08T07:55:35;0.58;68.52
19536;HTU21D;9913;51.168;4.124;2023-03-08T07:58:03;0.61;68.87
19536;HTU21D;9913;51.168;4.124;2023-03-08T08:00:32;0.65;68.85
19536;HTU21D;9913;51.168;4.124;2023-03-08T08:03:00;0.67;68.39
19536;HTU21D;9913;51.168;4.124;2023-03-08T08:05:28;0.65;67.96
19536;HTU21D;9913;51.168;4.124;2023-03-08T08:07:57;0.73;67.62
19536;HTU21D;9913;51.168;4.124;2023-03-08T08:10:25;0.76;67.35
19536;HTU21D;9913;51.168;4.124;2023-03-08T08:12:55;0.74;67.05
19536;HTU21D;9913;51.168;4.124;2023-03-08T08:15:23;0.75;66.79
19536;HTU21D;9913;51.168;4.124;2023-03-08T08:17:52;0.78;66.92
19536;HTU21D;9913;51.168;4.124;2023-03-08T08:20:20;0.75;66.97
19536;HTU21D;9913;51.168;4.124;2023-03-08T08:22:48;0.68;66.91
19536;HTU21D;9913;51.168;4.124;2023-03-08T08:25:19;0.76;66.94
19536;HTU21D;9913;51.168;4.124;2023-03-08T08:27:48;0.74;66.94
19536;HTU21D;9913;51.168;4.124;2023-03-08T08:30:18;0.78;66.77
19536;HTU21D;9913;51.168;4.124;2023-03-08T08:32:47;0.87;66.50
19536;HTU21D;9913;51.168;4.124;2023-03-08T08:35:15;0.84;66.17
19536;HTU21D;9913;51.168;4.124;2023-03-08T08:37:43;0.86;65.92
19536;HTU21D;9913;51.168;4.124;2023-03-08T08:40:15;0.97;65.75
19536;HTU21D;9913;51.168;4.124;2023-03-08T08:42:43;0.99;65.08
19536;HTU21D;9913;51.168;4.124;2023-03-08T08:45:11;0.99;65.02
19536;HTU21D;9913;51.168;4.124;2023-03-08T08:47:41;0.94;65.08
19536;HTU21D;9913;51.168;4.124;2023-03-08T08:50:11;0.96;64.95
19536;HTU21D;9913;51.168;4.124;2023-03-08T08:52:40;1.08;64.99
19536;HTU21D;9913;51.168;4.124;2023-03-08T08:55:08;1.13;64.95
19536;HTU21D;9913;51.168;4.124;2023-03-08T08:57:37;1.25;64.57
19536;HTU21D;9913;51.168;4.124;2023-03-08T09:00:07;1.25;64.19
19536;HTU21D;9913;51.168;4.124;2023-03-08T09:02:36;1.18;63.75
19536;HTU21D;9913;51.168;4.124;2023-03-08T09:05:06;1.31;63.82
19536;HTU21D;9913;51.168;4.124;2023-03-08T09:07:35;1.31;63.68
19536;HTU21D;9913;51.168;4.124;2023-03-08T09:10:06;1.28;63.61
19536;HTU21D;9913;51.168;4.124;2023-03-08T09:12:35;1.41;63.37
19536;HTU21D;9913;51.168;4.124;2023-03-08T09:15:05;1.49;63.05
19536;HTU21D;9913;51.168;4.124;2023-03-08T09:17:33;1.71;62.75
19536;HTU21D;9913;51.168;4.124;2023-03-08T09:20:02;1.52;62.57
19536;HTU21D;9913;51.168;4.124;2023-03-08T09:22:33;1.67;62.53
19536;HTU21D;9913;51.168;4.124;2023-03-08T09:25:02;1.62;62.53
19536;HTU21D;9913;51.168;4.124;2023-03-08T09:27:30;1.84;62.40
19536;HTU21D;9913;51.168;4.124;2023-03-08T09:29:59;1.82;62.08
19536;HTU21D;9913;51.168;4.124;2023-03-08T09:32:27;1.86;62.25
19536;HTU21D;9913;51.168;4.124;2023-03-08T09:34:56;1.73;62.19
19536;HTU21D;9913;51.168;4.124;2023-03-08T09:37:25;1.78;62.28
19536;HTU21D;9913;51.168;4.124;2023-03-08T09:39:55;1.67;62.60
19536;HTU21D;9913;51.168;4.124;2023-03-08T09:42:27;1.84;62.58
19536;HTU21D;9913;51.168;4.124;2023-03-08T09:45:05;1.88;62.21
19536;HTU21D;9913;51.168;4.124;2023-03-08T09:47:40;2.00;62.34
19536;HTU21D;9913;51.168;4.124;2023-03-08T09:50:24;1.94;62.08
19536;HTU21D;9913;51.168;4.124;2023-03-08T09:52:57;2.29;62.26
19536;HTU21D;9913;51.168;4.124;2023-03-08T09:55:30;2.23;61.77
19536;HTU21D;9913;51.168;4.124;2023-03-08T09:58:01;2.01;61.93
19536;HTU21D;9913;51.168;4.124;2023-03-08T10:00:34;2.15;62.16
19536;HTU21D;9913;51.168;4.124;2023-03-08T10:03:22;2.21;62.28
19536;HTU21D;9913;51.168;4.124;2023-03-08T10:06:01;2.06;61.92
19536;HTU21D;9913;51.168;4.124;2023-03-08T10:08:34;1.93;62.32
19536;HTU21D;9913;51.168;4.124;2023-03-08T10:11:10;1.99;62.50
19536;HTU21D;9913;51.168;4.124;2023-03-08T10:13:41;2.19;62.31
19536;HTU21D;9913;51.168;4.124;2023-03-08T10:16:15;2.16;62.32
19536;HTU21D;9913;51.168;4.124;2023-03-08T10:18:49;2.37;61.97
19536;HTU21D;9913;51.168;4.124;2023-03-08T10:21:21;2.36;62.31
19536;HTU21D;9913;51.168;4.124;2023-03-08T10:23:55;2.12;62.34
19536;HTU21D;9913;51.168;4.124;2023-03-08T10:26:27;1.97;62.41
19536;HTU21D;9913;51.168;4.124;2023-03-08T10:28:56;2.12;62.54
19536;HTU21D;9913;51.168;4.124;2023-03-08T10:31:26;2.20;62.63
19536;HTU21D;9913;51.168;4.124;2023-03-08T10:34:01;2.21;62.26
19536;HTU21D;9913;51.168;4.124;2023-03-08T10:36:30;2.17;62.12
19536;HTU21D;9913;51.168;4.124;2023-03-08T10:39:04;2.11;62.32
19536;HTU21D;9913;51.168;4.124;2023-03-08T10:41:40;2.31;62.52
19536;HTU21D;9913;51.168;4.124;2023-03-08T10:44:13;2.15;62.57
19536;HTU21D;9913;51.168;4.124;2023-03-08T10:46:46;2.15;62.48
19536;HTU21D;9913;51.168;4.124;2023-03-08T10:49:17;2.15;62.60
19536;HTU21D;9913;51.168;4.124;2023-03-08T10:51:53;2.27;62.54
19536;HTU21D;9913;51.168;4.124;2023-03-08T10:54:22;2.24;62.44
19536;HTU21D;9913;51.168;4.124;2023-03-08T10:56:54;2.28;62.20
19536;HTU21D;9913;51.168;4.124;2023-03-08T10:59:27;2.52;62.68
19536;HTU21D;9913;51.168;4.124;2023-03-08T11:02:00;2.54;62.34
19536;HTU21D;9913;51.168;4.124;2023-03-08T11:04:29;2.52;62.31
19536;HTU21D;9913;51.168;4.124;2023-03-08T11:07:08;2.47;62.29
19536;HTU21D;9913;51.168;4.124;2023-03-08T11:09:37;2.43;62.34
19536;HTU21D;9913;51.168;4.124;2023-03-08T11:12:21;2.46;62.24
19536;HTU21D;9913;51.168;4.124;2023-03-08T11:14:50;2.46;62.53
19536;HTU21D;9913;51.168;4.124;2023-03-08T11:17:22;2.42;62.25
19536;HTU21D;9913;51.168;4.124;2023-03-08T11:20:02;2.43;62.50
19536;HTU21D;9913;51.168;4.124;2023-03-08T11:22:49;2.44;62.31
19536;HTU21D;9913;51.168;4.124;2023-03-08T11:25:35;2.46;62.45
19536;HTU21D;9913;51.168;4.124;2023-03-08T11:28:18;2.46;62.63
19536;HTU21D;9913;51.168;4.124;2023-03-08T11:31:04;2.40;62.43
19536;HTU21D;9913;51.168;4.124;2023-03-08T11:34:04;2.25;62.54
19536;HTU21D;9913;51.168;4.124;2023-03-08T11:36:42;2.24;62.53
19536;HTU21D;9913;51.168;4.124;2023-03-08T11:39:16;2.13;62.92
19536;HTU21D;9913;51.168;4.124;2023-03-08T11:41:55;2.16;62.97
19536;HTU21D;9913;51.168;4.124;2023-03-08T11:44:37;2.10;63.15
19536;HTU21D;9913;51.168;4.124;2023-03-08T11:50:17;2.35;62.70
19536;HTU21D;9913;51.168;4.124;2023-03-08T11:52:55;2.45;62.73
19536;HTU21D;9913;51.168;4.124;2023-03-08T11:55:42;2.30;62.44
19536;HTU21D;9913;51.168;4.124;2023-03-08T11:58:21;2.20;62.53
19536;HTU21D;9913;51.168;4.124;2023-03-08T12:00:55;2.03;62.98
19536;HTU21D;9913;51.168;4.124;2023-03-08T12:03:30;2.28;62.95
19536;HTU21D;9913;51.168;4.124;2023-03-08T12:06:03;2.40;62.92
19536;HTU21D;9913;51.168;4.124;2023-03-08T12:08:53;2.50;62.81
19536;HTU21D;9913;51.168;4.124;2023-03-08T12:11:27;2.65;62.36
19536;HTU21D;9913;51.168;4.124;2023-03-08T12:14:04;2.89;62.14
19536;HTU21D;9913;51.168;4.124;2023-03-08T12:16:44;2.74;62.10
19536;HTU21D;9913;51.168;4.124;2023-03-08T12:19:23;2.78;62.17
19536;HTU21D;9913;51.168;4.124;2023-03-08T12:21:59;2.95;62.52
19536;HTU21D;9913;51.168;4.124;2023-03-08T12:24:42;3.03;62.19
19536;HTU21D;9913;51.168;4.124;2023-03-08T12:27:15;3.11;62.28
19536;HTU21D;9913;51.168;4.124;2023-03-08T12:29:48;3.15;62.37
19536;HTU21D;9913;51.168;4.124;2023-03-08T12:32:20;2.91;62.21
19536;HTU21D;9913;51.168;4.124;2023-03-08T12:35:00;2.78;62.52
19536;HTU21D;9913;51.168;4.124;2023-03-08T12:37:29;2.78;62.05
19536;HTU21D;9913;51.168;4.124;2023-03-08T12:40:00;2.71;62.27
19536;HTU21D;9913;51.168;4.124;2023-03-08T12:42:34;2.74;62.37
19536;HTU21D;9913;51.168;4.124;2023-03-08T12:45:25;2.81;62.24
19536;HTU21D;9913;51.168;4.124;2023-03-08T12:48:06;2.91;62.29
19536;HTU21D;9913;51.168;4.124;2023-03-08T12:50:39;2.76;62.73
19536;HTU21D;9913;51.168;4.124;2023-03-08T12:53:22;2.68;62.27
19536;HTU21D;9913;51.168;4.124;2023-03-08T12:56:03;2.74;62.33
19536;HTU21D;9913;51.168;4.124;2023-03-08T12:58:35;2.56;62.71
19536;HTU21D;9913;51.168;4.124;2023-03-08T13:01:06;2.55;62.66
19536;HTU21D;9913;51.168;4.124;2023-03-08T13:03:38;2.68;62.55
19536;HTU21D;9913;51.168;4.124;2023-03-08T13:06:45;2.49;62.52
19536;HTU21D;9913;51.168;4.124;2023-03-08T13:09:20;2.61;62.81
19536;HTU21D;9913;51.168;4.124;2023-03-08T13:11:52;2.71;62.68
19536;HTU21D;9913;51.168;4.124;2023-03-08T13:14:26;2.74;62.54
19536;HTU21D;9913;51.168;4.124;2023-03-08T13:16:54;2.82;62.42
19536;HTU21D;9913;51.168;4.124;2023-03-08T13:19:28;2.81;62.34
19536;HTU21D;9913;51.168;4.124;2023-03-08T13:22:04;2.59;62.70
19536;HTU21D;9913;51.168;4.124;2023-03-08T13:24:43;2.60;62.79
19536;HTU21D;9913;51.168;4.124;2023-03-08T13:27:25;2.52;62.74
19536;HTU21D;9913;51.168;4.124;2023-03-08T13:29:57;2.61;62.89
19536;HTU21D;9913;51.168;4.124;2023-03-08T13:32:27;2.79;62.67
19536;HTU21D;9913;51.168;4.124;2023-03-08T13:34:59;2.67;62.61
19536;HTU21D;9913;51.168;4.124;2023-03-08T13:37:28;2.62;62.67
19536;HTU21D;9913;51.168;4.124;2023-03-08T13:39:58;2.68;62.61
19536;HTU21D;9913;51.168;4.124;2023-03-08T13:42:27;2.66;62.71
19536;HTU21D;9913;51.168;4.124;2023-03-08T13:45:07;2.61;62.69
19536;HTU21D;9913;51.168;4.124;2023-03-08T13:47:37;2.74;62.93
19536;HTU21D;9913;51.168;4.124;2023-03-08T13:50:16;2.66;62.59
19536;HTU21D;9913;51.168;4.124;2023-03-08T13:52:46;2.70;62.71
19536;HTU21D;9913;51.168;4.124;2023-03-08T13:55:19;2.68;62.67
19536;HTU21D;9913;51.168;4.124;2023-03-08T13:57:50;2.62;62.51
19536;HTU21D;9913;51.168;4.124;2023-03-08T14:00:24;2.62;62.82
19536;HTU21D;9913;51.168;4.124;2023-03-08T14:02:53;2.46;62.81
19536;HTU21D;9913;51.168;4.124;2023-03-08T14:05:25;2.54;62.87
19536;HTU21D;9913;51.168;4.124;2023-03-08T14:07:58;2.64;62.81
19536;HTU21D;9913;51.168;4.124;2023-03-08T14:10:34;2.60;62.95
19536;HTU21D;9913;51.168;4.124;2023-03-08T14:13:04;2.58;62.83
19536;HTU21D;9913;51.168;4.124;2023-03-08T14:15:34;2.54;62.87
19536;HTU21D;9913;51.168;4.124;2023-03-08T14:18:05;2.55;62.91
19536;HTU21D;9913;51.168;4.124;2023-03-08T14:20:39;2.56;62.92
19536;HTU21D;9913;51.168;4.124;2023-03-08T14:23:21;2.54;63.00
19536;HTU21D;9913;51.168;4.124;2023-03-08T14:25:55;2.56;63.11
19536;HTU21D;9913;51.168;4.124;2023-03-08T14:28:35;2.62;63.02
19536;HTU21D;9913;51.168;4.124;2023-03-08T14:31:23;2.53;62.89
19536;HTU21D;9913;51.168;4.124;2023-03-08T14:33:57;2.52;63.07
19536;HTU21D;9913;51.168;4.124;2023-03-08T14:36:29;2.43;62.93
19536;HTU21D;9913;51.168;4.124;2023-03-08T14:38:58;2.41;63.03
19536;HTU21D;9913;51.168;4.124;2023-03-08T14:41:32;2.49;63.02
19536;HTU21D;9913;51.168;4.124;2023-03-08T14:44:01;2.49;63.08
19536;HTU21D;9913;51.168;4.124;2023-03-08T14:46:30;2.49;63.10
19536;HTU21D;9913;51.168;4.124;2023-03-08T14:49:00;2.49;63.22
19536;HTU21D;9913;51.168;4.124;2023-03-08T14:51:38;2.47;63.17
19536;HTU21D;9913;51.168;4.124;2023-03-08T14:54:20;2.46;63.32
19536;HTU21D;9913;51.168;4.124;2023-03-08T14:56:49;2.47;63.27
19536;HTU21D;9913;51.168;4.124;2023-03-08T14:59:17;2.40;63.41
19536;HTU21D;9913;51.168;4.124;2023-03-08T15:01:54;2.52;63.66
19536;HTU21D;9913;51.168;4.124;2023-03-08T15:04:24;2.46;63.61
19536;HTU21D;9913;51.168;4.124;2023-03-08T15:06:54;2.37;63.99
19536;HTU21D;9913;51.168;4.124;2023-03-08T15:09:22;2.38;64.43
19536;HTU21D;9913;51.168;4.124;2023-03-08T15:11:52;2.28;64.70
19536;HTU21D;9913;51.168;4.124;2023-03-08T15:14:24;2.30;64.77
19536;HTU21D;9913;51.168;4.124;2023-03-08T15:16:54;2.28;65.14
19536;HTU21D;9913;51.168;4.124;2023-03-08T15:19:24;2.22;65.21
19536;HTU21D;9913;51.168;4.124;2023-03-08T15:21:53;2.20;65.74
19536;HTU21D;9913;51.168;4.124;2023-03-08T15:24:22;2.16;66.04
19536;HTU21D;9913;51.168;4.124;2023-03-08T15:26:50;2.16;66.24
19536;HTU21D;9913;51.168;4.124;2023-03-08T15:29:26;2.16;66.27
19536;HTU21D;9913;51.168;4.124;2023-03-08T15:31:55;2.34;66.67
19536;HTU21D;9913;51.168;4.124;2023-03-08T15:34:24;2.34;66.78
19536;HTU21D;9913;51.168;4.124;2023-03-08T15:36:55;2.39;66.50
19536;HTU21D;9913;51.168;4.124;2023-03-08T15:39:26;2.31;65.88
19536;HTU21D;9913;51.168;4.124;2023-03-08T15:41:55;2.35;65.69
19536;HTU21D;9913;51.168;4.124;2023-03-08T15:44:23;2.32;65.72
19536;HTU21D;9913;51.168;4.124;2023-03-08T15:46:51;2.38;65.78
19536;HTU21D;9913;51.168;4.124;2023-03-08T15:49:20;2.37;65.80
19536;HTU21D;9913;51.168;4.124;2023-03-08T15:51:48;2.38;65.83
19536;HTU21D;9913;51.168;4.124;2023-03-08T15:54:18;2.34;65.43
19536;HTU21D;9913;51.168;4.124;2023-03-08T15:56:46;2.37;65.61
19536;HTU21D;9913;51.168;4.124;2023-03-08T15:59:14;2.31;65.67
19536;HTU21D;9913;51.168;4.124;2023-03-08T16:01:43;2.29;65.91
19536;HTU21D;9913;51.168;4.124;2023-03-08T16:04:11;2.35;66.41
19536;HTU21D;9913;51.168;4.124;2023-03-08T16:06:40;2.40;66.40
19536;HTU21D;9913;51.168;4.124;2023-03-08T16:09:09;2.32;66.27
19536;HTU21D;9913;51.168;4.124;2023-03-08T16:11:39;2.29;66.53
19536;HTU21D;9913;51.168;4.124;2023-03-08T16:14:07;2.31;66.40
19536;HTU21D;9913;51.168;4.124;2023-03-08T16:16:36;2.41;66.78